Teec Nos Pos, AZ (86514)

4:02 AM MDT on September 22, 2014 (GMT -0600)
Cortez Municipal | Change Station
CLOSE
Current Station
Airport
Location: Cortez,
Elevation: 5915 ft
Nearby Weather Stations

Elev 5915 ft 37.31 °N, 108.63 °W | Updated 9 minutes ago

Mostly Cloudy
Mostly Cloudy
60 °F
Feels Like 60 °F
N
6
Wind Variable Wind from NE

Today
High -- | Low -- °F
--% Chance of Precip.
Yesterday
High -- | Low -- °F
Precip. -- in
7:05 AM 7:14 PM
Waning Crescent, 3% visible
Pressure 30.05 in
Visibility 10.0 miles
Clouds Mostly Cloudy 9000 ft
Overcast 11000 ft
Dew Point 58 °F
Humidity 93%
Rainfall 0.02 in
Snow Depth 2 in , 0 in , 0 in
UV 0 out of 12
Pollen 6.30 out of 12
Air Quality Not available.
Flu Activity Not available.
METAR KCEZ 220953Z AUTO 04005KT 10SM BKN090 OVC110 16/14 A3027 RMK AO2 RAB34E49 SLP176 P0000 T01560144

More Conditions Fewer Conditions

Pressure 30.05 in
Visibility 10.0 miles
Clouds Mostly Cloudy 9000 ft
Overcast 11000 ft
Dew Point 58 °F
Humidity 93%
Rainfall 0.02 in
Snow Depth 2 in , 0 in , 0 in
UV 0 out of 12
Pollen 6.30 out of 12
Air Quality Not available.
Flu Activity Not available.
METAR KCEZ 220953Z AUTO 04005KT 10SM BKN090 OVC110 16/14 A3027 RMK AO2 RAB34E49 SLP176 P0000 T01560144

More Conditions Fewer Conditions

10-Day Weather Forecast

Almanac

Astronomy

Sep. 22, 2014 Rise Set
Actual Time 7:05 AM MDT 7:14 PM MDT
Civil Twilight 6:39 AM MDT 7:40 PM MDT
Nautical Twilight 6:09 AM MDT 8:10 PM MDT
Astronomical Twilight 5:38 AM MDT 8:40 PM MDT
Moon 5:38 AM MDT 6:22 PM MDT
Length of Visible Light 13h 00m
Length of Day
12h 08m
Tomorrow will be 2m 19s shorter.
Waning Crescent, 3% of the Moon is Illuminated
Today
Waning Crescent
Sep 24
New
Oct 1
First Quarter
Oct 8
Full
Oct 15
Last Quarter

Today's Extremes

State Highs State Lows

Community

WunderPhotos

Upload Photos

1,755,403 photos uploaded!

Nearby

Snow Depth

Station Depth Elevation
Workman Creek 2 in 6900 ft
Coronado Trail 0 in 8400 ft
Fry 0 in 7200 ft
Mormon Mountain 0 in 7500 ft
Beaver Head 1 in 7990 ft

Earthquake Activity

City Distance Mag. Time & Date
No recent earthquake activity has been reported nearby.
Minimum magnitude displayed is 2.5.

Coastal Water Temperatures

Place Temperature
No Stations Reporting

Nearby Weather Stations